createdAt,value
2023-01-09T00:01:50.107Z,79.79
2023-01-09T00:03:53.128Z,79.80
2023-01-09T00:05:57.344Z,79.92
2023-01-09T00:08:00.147Z,80.33
2023-01-09T00:10:02.969Z,80.01
2023-01-09T00:12:06.469Z,80.34
2023-01-09T00:14:10.971Z,80.57
2023-01-09T00:16:14.430Z,81.07
2023-01-09T00:18:17.307Z,80.89
2023-01-09T00:20:20.090Z,80.25
2023-01-09T00:22:24.194Z,80.13
2023-01-09T00:24:27.051Z,80.65
2023-01-09T00:26:30.504Z,80.08
2023-01-09T00:28:36.332Z,80.88
2023-01-09T00:30:39.399Z,80.96
2023-01-09T00:32:42.353Z,81.07
2023-01-09T00:34:45.212Z,80.73
2023-01-09T00:36:48.675Z,80.67
2023-01-09T00:38:53.220Z,80.63
2023-01-09T00:40:56.951Z,80.70
2023-01-09T00:42:59.923Z,80.32
2023-01-09T00:45:04.859Z,80.98
2023-01-09T00:47:13.525Z,80.35
2023-01-09T00:49:17.826Z,80.30
2023-01-09T00:51:21.442Z,80.36
2023-01-09T00:53:27.888Z,80.42
2023-01-09T00:55:32.349Z,80.54
2023-01-09T00:57:35.134Z,80.84
2023-01-09T00:59:37.993Z,81.13
2023-01-09T01:01:40.807Z,81.12
2023-01-09T01:03:43.643Z,81.10
2023-01-09T01:06:04.127Z,81.38
2023-01-09T01:08:11.019Z,81.27
2023-01-09T01:10:17.245Z,81.22
2023-01-09T01:12:21.412Z,81.26
2023-01-09T01:14:24.263Z,81.01
2023-01-09T01:16:27.201Z,81.34
2023-01-09T01:18:30.072Z,81.47
2023-01-09T01:20:32.889Z,81.52
2023-01-09T01:22:35.739Z,80.96
2023-01-09T01:24:38.527Z,81.00
2023-01-09T01:26:41.346Z,80.99
2023-01-09T01:28:45.645Z,81.84
2023-01-09T01:30:48.459Z,81.41
2023-01-09T01:32:51.201Z,81.24
2023-01-09T01:34:54.964Z,81.16
2023-01-09T01:36:57.778Z,81.45
2023-01-09T01:39:00.575Z,81.20
2023-01-09T01:41:04.132Z,81.03
2023-01-09T01:43:07.280Z,80.79
2023-01-09T01:45:14.610Z,80.91
2023-01-09T01:47:20.515Z,81.09
2023-01-09T01:49:23.645Z,80.67
2023-01-09T01:51:28.315Z,80.83
2023-01-09T01:53:35.462Z,80.68
2023-01-09T01:55:42.314Z,81.17
2023-01-09T01:57:49.831Z,81.01
2023-01-09T01:59:58.756Z,80.93
2023-01-09T02:02:04.149Z,80.96
2023-01-09T02:04:07.133Z,80.62
2023-01-09T02:06:10.593Z,81.03
2023-01-09T02:08:13.712Z,80.79
2023-01-09T02:10:16.712Z,80.93
2023-01-09T02:12:23.645Z,81.03
2023-01-09T02:14:29.097Z,80.99
2023-01-09T02:16:45.576Z,80.60
2023-01-09T02:18:52.278Z,81.01
2023-01-09T02:20:59.537Z,80.76
2023-01-09T02:23:21.319Z,80.65
2023-01-09T02:25:50.484Z,80.57
2023-01-09T02:28:20.362Z,80.78
2023-01-09T02:30:41.207Z,80.78
2023-01-09T02:33:01.034Z,81.11
2023-01-09T02:35:14.747Z,81.17
2023-01-09T02:37:26.701Z,80.83
2023-01-09T02:39:36.960Z,81.26
2023-01-09T02:41:46.873Z,81.18
2023-01-09T02:43:49.650Z,81.19
2023-01-09T02:45:53.858Z,81.08
2023-01-09T02:47:56.644Z,81.22
2023-01-09T02:50:03.196Z,81.37
2023-01-09T02:52:27.293Z,81.47
2023-01-09T02:54:38.943Z,81.58
2023-01-09T02:57:05.983Z,81.35
2023-01-09T02:59:20.408Z,81.53
2023-01-09T03:01:36.338Z,81.46
2023-01-09T03:03:47.245Z,81.78
2023-01-09T03:05:56.631Z,81.69
2023-01-09T03:08:03.045Z,81.58
2023-01-09T03:10:14.983Z,81.49
2023-01-09T03:12:22.382Z,81.77
2023-01-09T03:14:27.174Z,81.68
2023-01-09T03:16:33.197Z,81.50
2023-01-09T03:18:39.550Z,81.60
2023-01-09T03:20:43.676Z,81.11
2023-01-09T03:22:55.439Z,81.08
2023-01-09T03:24:58.308Z,80.67
2023-01-09T03:27:01.473Z,80.71
2023-01-09T03:29:04.871Z,80.96
2023-01-09T03:31:07.708Z,80.69
2023-01-09T03:33:11.861Z,80.73
2023-01-09T03:35:14.787Z,80.69
2023-01-09T03:37:17.570Z,80.38
2023-01-09T03:39:20.361Z,80.03
2023-01-09T03:41:23.104Z,80.00
2023-01-09T03:43:26.438Z,80.16
2023-01-09T03:45:29.353Z,80.08
2023-01-09T03:47:32.269Z,79.98
2023-01-09T03:49:36.636Z,79.69
2023-01-09T03:51:39.390Z,79.29
2023-01-09T03:53:42.750Z,78.11
2023-01-09T03:55:47.516Z,78.53
2023-01-09T03:57:50.663Z,78.06
2023-01-09T03:59:53.464Z,77.34
2023-01-09T04:01:56.315Z,76.65
2023-01-09T04:03:59.116Z,76.04
2023-01-09T04:06:03.308Z,76.00
2023-01-09T04:08:06.601Z,75.53
2023-01-09T04:10:10.943Z,75.00
2023-01-09T04:12:14.281Z,74.26
2023-01-09T04:14:17.290Z,73.85
2023-01-09T04:16:20.107Z,73.66
2023-01-09T04:18:22.893Z,73.03
2023-01-09T04:20:25.685Z,72.92
2023-01-09T04:22:31.292Z,72.85
2023-01-09T04:24:34.081Z,72.26
2023-01-09T04:26:36.851Z,72.14
2023-01-09T04:28:39.680Z,72.54
2023-01-09T04:30:42.549Z,72.42
2023-01-09T04:32:45.267Z,72.63
2023-01-09T04:34:48.075Z,73.13
2023-01-09T04:36:50.841Z,73.22
2023-01-09T04:38:54.995Z,73.25
2023-01-09T04:40:57.758Z,73.29
2023-01-09T04:43:00.539Z,73.12
2023-01-09T04:45:03.390Z,72.84
2023-01-09T04:47:06.619Z,72.24
2023-01-09T04:49:09.394Z,72.01
2023-01-09T04:51:14.045Z,71.74
2023-01-09T04:53:16.838Z,70.96
2023-01-09T04:55:20.955Z,70.25
2023-01-09T04:57:23.948Z,70.22
2023-01-09T04:59:26.801Z,69.96
2023-01-09T05:01:29.886Z,69.77
2023-01-09T05:03:32.759Z,68.28
2023-01-09T05:05:35.643Z,67.98
2023-01-09T05:07:38.606Z,68.25
2023-01-09T05:09:41.837Z,67.54
2023-01-09T05:11:45.971Z,67.23
2023-01-09T05:13:48.845Z,67.05
2023-01-09T05:15:51.695Z,67.64
2023-01-09T05:17:54.504Z,67.56
2023-01-09T05:19:57.352Z,68.03
2023-01-09T05:22:00.149Z,67.67
2023-01-09T05:24:03.097Z,67.33
2023-01-09T05:26:06.234Z,68.09
2023-01-09T05:28:10.606Z,67.58
2023-01-09T05:30:16.010Z,68.29
2023-01-09T05:32:20.080Z,68.91
2023-01-09T05:34:23.031Z,69.09
2023-01-09T05:36:25.939Z,68.79
2023-01-09T05:38:28.731Z,68.20
2023-01-09T05:40:38.560Z,67.24
2023-01-09T05:42:43.908Z,66.41
2023-01-09T05:44:48.072Z,66.30
2023-01-09T05:46:50.854Z,65.58
2023-01-09T05:48:53.699Z,65.85
2023-01-09T05:50:56.657Z,65.66
2023-01-09T05:52:59.395Z,65.64
2023-01-09T05:55:02.212Z,65.52
2023-01-09T05:57:05.152Z,65.96
2023-01-09T05:59:07.911Z,65.67
2023-01-09T06:01:12.057Z,66.26
2023-01-09T06:03:14.999Z,65.43
2023-01-09T06:05:18.006Z,65.79
2023-01-09T06:07:23.364Z,65.92
2023-01-09T06:09:26.316Z,66.27
2023-01-09T06:11:29.054Z,66.27
2023-01-09T06:13:31.910Z,66.31
2023-01-09T06:15:34.702Z,66.47
2023-01-09T06:17:38.927Z,66.34
2023-01-09T06:19:41.781Z,67.52
2023-01-09T06:21:44.546Z,67.07
2023-01-09T06:23:47.393Z,67.22
2023-01-09T06:25:50.187Z,67.25
2023-01-09T06:27:53.074Z,67.35
2023-01-09T06:29:55.849Z,67.24
2023-01-09T06:31:58.590Z,67.06
2023-01-09T06:34:02.831Z,66.91
2023-01-09T06:36:06.490Z,66.86
2023-01-09T06:38:09.293Z,67.33
2023-01-09T06:40:12.842Z,67.55
2023-01-09T06:42:15.596Z,67.81
2023-01-09T06:44:18.377Z,68.18
2023-01-09T06:46:21.221Z,68.70
2023-01-09T06:48:24.951Z,68.62
2023-01-09T06:50:29.150Z,68.64
2023-01-09T06:52:31.911Z,69.36
2023-01-09T06:54:34.823Z,69.69
2023-01-09T06:56:37.663Z,69.94
2023-01-09T06:58:40.586Z,69.83
2023-01-09T07:00:43.746Z,69.69
2023-01-09T07:02:46.631Z,69.85
2023-01-09T07:04:49.537Z,69.23
2023-01-09T07:06:53.743Z,69.92
2023-01-09T07:08:56.573Z,69.90
2023-01-09T07:10:59.397Z,70.51
2023-01-09T07:13:02.162Z,70.86
2023-01-09T07:15:05.884Z,70.55
2023-01-09T07:17:08.728Z,70.34
2023-01-09T07:19:11.551Z,70.08
2023-01-09T07:21:14.441Z,69.93
2023-01-09T07:23:18.835Z,70.24
2023-01-09T07:25:21.851Z,70.52
2023-01-09T07:27:24.623Z,70.33
2023-01-09T07:29:27.418Z,69.88
2023-01-09T07:31:30.274Z,70.10
2023-01-09T07:33:33.034Z,70.42
2023-01-09T07:35:36.058Z,70.50
2023-01-09T07:37:38.955Z,70.63
2023-01-09T07:39:43.291Z,70.62
2023-01-09T07:41:46.445Z,70.70
2023-01-09T07:43:50.767Z,71.11
2023-01-09T07:45:53.656Z,70.96
2023-01-09T07:47:56.568Z,70.81
2023-01-09T07:49:59.345Z,71.38
2023-01-09T07:52:02.140Z,71.78
2023-01-09T07:54:05.084Z,72.18
2023-01-09T07:56:09.434Z,72.33
2023-01-09T07:58:12.258Z,72.79
2023-01-09T08:00:15.450Z,72.82
2023-01-09T08:02:18.708Z,72.38
2023-01-09T08:04:21.524Z,72.23
2023-01-09T08:06:24.258Z,72.24
2023-01-09T08:08:27.078Z,72.48
2023-01-09T08:10:29.831Z,72.36
2023-01-09T08:12:33.982Z,71.51
2023-01-09T08:14:36.745Z,71.78
2023-01-09T08:16:39.468Z,71.83
2023-01-09T08:18:43.425Z,71.42
2023-01-09T08:20:49.254Z,71.19
2023-01-09T08:22:53.600Z,71.18
2023-01-09T08:24:56.381Z,71.57
2023-01-09T08:26:59.227Z,71.99
2023-01-09T08:29:03.733Z,71.55
2023-01-09T08:31:06.799Z,71.40
2023-01-09T08:33:09.669Z,71.27
2023-01-09T08:35:12.490Z,70.45
2023-01-09T08:37:15.381Z,70.16
2023-01-09T08:39:18.132Z,70.54
2023-01-09T08:41:38.342Z,70.82
2023-01-09T08:43:58.519Z,71.13
2023-01-09T08:46:24.851Z,71.05
2023-01-09T08:48:27.700Z,71.19
2023-01-09T08:50:30.578Z,70.61
2023-01-09T08:52:33.394Z,70.69
2023-01-09T08:54:36.864Z,70.98
2023-01-09T08:56:39.828Z,70.92
2023-01-09T08:58:42.649Z,70.76
2023-01-09T09:00:45.488Z,70.27
2023-01-09T09:02:53.963Z,70.83
2023-01-09T09:04:56.768Z,70.61
2023-01-09T09:06:59.610Z,70.71
2023-01-09T09:09:03.514Z,70.94
2023-01-09T09:11:06.564Z,70.22
2023-01-09T09:13:09.448Z,70.97
2023-01-09T09:15:16.470Z,70.54
2023-01-09T09:17:19.400Z,69.77
2023-01-09T09:19:23.554Z,69.70
2023-01-09T09:21:26.352Z,69.94
2023-01-09T09:23:29.114Z,69.71
2023-01-09T09:25:32.143Z,69.97
2023-01-09T09:27:36.451Z,69.60
2023-01-09T09:29:39.226Z,69.19
2023-01-09T09:31:42.157Z,69.70
2023-01-09T09:33:44.999Z,69.44
2023-01-09T09:35:49.141Z,69.41
2023-01-09T09:37:56.031Z,69.31
2023-01-09T09:40:01.438Z,69.12
2023-01-09T09:42:44.089Z,69.47
2023-01-09T09:45:02.781Z,69.55
2023-01-09T09:47:12.964Z,69.15
2023-01-09T09:49:22.199Z,69.90
2023-01-09T09:51:44.195Z,69.83
2023-01-09T09:53:52.590Z,70.09
2023-01-09T09:55:57.475Z,70.06
2023-01-09T09:58:02.009Z,69.83
2023-01-09T10:00:07.269Z,70.03
2023-01-09T10:02:26.040Z,70.08
2023-01-09T10:04:33.651Z,69.40
2023-01-09T10:06:44.035Z,69.75
2023-01-09T10:08:55.602Z,70.03
2023-01-09T10:10:58.712Z,70.17
2023-01-09T10:13:23.341Z,69.85
2023-01-09T10:15:38.737Z,69.16
2023-01-09T10:17:49.904Z,68.80
2023-01-09T10:20:12.720Z,68.06
2023-01-09T10:22:30.946Z,68.55
2023-01-09T10:24:47.841Z,68.10
2023-01-09T10:26:54.027Z,67.69
2023-01-09T10:29:11.178Z,67.38
2023-01-09T10:31:21.015Z,67.75
2023-01-09T10:33:44.066Z,68.09
2023-01-09T10:36:25.112Z,68.23
2023-01-09T10:38:33.686Z,68.58
2023-01-09T10:40:43.035Z,69.00
2023-01-09T10:42:48.509Z,68.82
2023-01-09T10:44:58.009Z,68.98
2023-01-09T10:47:02.448Z,70.12
2023-01-09T10:49:12.403Z,69.80
2023-01-09T10:51:19.847Z,70.16
2023-01-09T10:53:27.694Z,71.05
2023-01-09T10:55:39.883Z,71.45
2023-01-09T10:57:44.666Z,70.94
2023-01-09T10:59:47.435Z,70.58
2023-01-09T11:01:50.458Z,71.14
2023-01-09T11:03:59.040Z,71.64
2023-01-09T11:06:02.809Z,71.35
2023-01-09T11:08:13.540Z,70.94
2023-01-09T11:10:17.352Z,71.25
2023-01-09T11:12:28.227Z,71.07
2023-01-09T11:14:31.978Z,70.90
2023-01-09T11:16:35.615Z,71.73
2023-01-09T11:18:40.959Z,71.71
2023-01-09T11:20:43.830Z,71.80
2023-01-09T11:22:48.143Z,71.91
2023-01-09T11:25:01.220Z,71.75
2023-01-09T11:27:23.470Z,71.70
2023-01-09T11:29:27.849Z,72.17
2023-01-09T11:31:30.858Z,72.56
2023-01-09T11:33:38.292Z,72.81
2023-01-09T11:35:55.836Z,72.38
2023-01-09T11:38:04.210Z,72.85
2023-01-09T11:40:17.760Z,72.60
2023-01-09T11:42:42.873Z,72.25
2023-01-09T11:44:47.422Z,72.66
2023-01-09T11:46:50.328Z,72.99
2023-01-09T11:48:57.624Z,72.81
2023-01-09T11:51:02.949Z,73.12
2023-01-09T11:53:15.202Z,73.13
2023-01-09T11:55:20.568Z,72.29
2023-01-09T11:57:25.286Z,72.82
2023-01-09T11:59:29.467Z,73.35
2023-01-09T12:01:47.970Z,72.62
2023-01-09T12:04:08.328Z,73.03
2023-01-09T12:06:19.261Z,72.34
2023-01-09T12:08:39.107Z,71.92
2023-01-09T12:11:03.278Z,73.00
2023-01-09T12:13:20.074Z,72.92
2023-01-09T12:15:29.255Z,73.29
2023-01-09T12:17:47.910Z,73.55
2023-01-09T12:20:07.345Z,73.38
2023-01-09T12:22:22.109Z,73.00
2023-01-09T12:24:49.461Z,73.05
2023-01-09T12:27:02.461Z,73.27
2023-01-09T12:29:25.387Z,72.65
2023-01-09T12:31:46.976Z,72.49
2023-01-09T12:34:03.994Z,72.65
2023-01-09T12:36:22.971Z,72.44
2023-01-09T12:38:41.102Z,72.86
2023-01-09T12:41:00.130Z,72.48
2023-01-09T12:43:13.819Z,72.44
2023-01-09T12:45:38.682Z,72.38
2023-01-09T12:47:46.658Z,72.57
2023-01-09T12:49:59.681Z,72.46
2023-01-09T12:52:08.698Z,72.85
2023-01-09T12:54:17.456Z,72.91
2023-01-09T12:56:25.641Z,73.11
2023-01-09T12:58:35.502Z,73.28
2023-01-09T13:00:42.320Z,73.00
2023-01-09T13:02:51.627Z,73.18
2023-01-09T13:05:03.696Z,73.23
2023-01-09T13:07:19.770Z,72.10
2023-01-09T13:09:27.545Z,71.23
2023-01-09T13:11:39.582Z,71.50
2023-01-09T13:13:47.975Z,70.29
2023-01-09T13:15:54.027Z,71.17
2023-01-09T13:18:01.301Z,71.21
2023-01-09T13:20:15.957Z,70.61
2023-01-09T13:22:19.136Z,70.60
2023-01-09T13:24:31.830Z,70.88
2023-01-09T13:26:40.904Z,71.01
2023-01-09T13:28:47.827Z,71.26
2023-01-09T13:31:03.032Z,71.06
2023-01-09T13:33:17.844Z,71.40
2023-01-09T13:35:22.017Z,71.11
2023-01-09T13:37:28.770Z,71.45
2023-01-09T13:39:35.157Z,71.74
2023-01-09T13:42:06.298Z,71.36
2023-01-09T13:44:24.516Z,70.51
2023-01-09T13:46:39.862Z,70.36
2023-01-09T13:48:42.636Z,69.42
2023-01-09T13:50:48.166Z,69.43
2023-01-09T13:52:51.145Z,69.67
2023-01-09T13:55:25.465Z,69.53
2023-01-09T13:57:31.505Z,69.23
2023-01-09T13:59:34.442Z,68.66
2023-01-09T14:01:43.539Z,68.66
2023-01-09T14:04:21.274Z,68.16
2023-01-09T14:06:28.060Z,68.84
2023-01-09T14:08:33.234Z,68.16
2023-01-09T14:10:38.712Z,67.26
2023-01-09T14:12:44.207Z,66.49
2023-01-09T14:14:47.770Z,66.21
2023-01-09T14:16:50.695Z,65.82
2023-01-09T14:18:57.936Z,66.63
2023-01-09T14:21:03.082Z,66.50
2023-01-09T14:23:42.109Z,66.54
2023-01-09T14:25:32.624Z,66.64
2023-01-09T14:28:11.633Z,67.23
2023-01-09T14:30:33.295Z,67.33
2023-01-09T14:32:45.155Z,67.40
2023-01-09T14:34:52.331Z,67.47
2023-01-09T14:36:59.398Z,67.58
2023-01-09T14:39:07.733Z,66.74
2023-01-09T14:41:20.879Z,67.27
2023-01-09T14:43:39.241Z,67.17
2023-01-09T14:45:49.644Z,66.85
2023-01-09T14:47:55.700Z,66.76
2023-01-09T14:50:04.264Z,65.72
2023-01-09T14:52:14.364Z,65.75
2023-01-09T14:54:29.436Z,65.51
2023-01-09T14:56:34.781Z,64.59
2023-01-09T14:58:38.115Z,65.49
2023-01-09T15:00:49.643Z,64.70
2023-01-09T15:02:54.164Z,65.45
2023-01-09T15:04:59.864Z,65.59
2023-01-09T15:07:03.040Z,64.90
2023-01-09T15:09:14.732Z,65.09
2023-01-09T15:11:19.568Z,65.74
2023-01-09T15:13:27.889Z,65.70
2023-01-09T15:15:31.173Z,65.71
2023-01-09T15:17:38.235Z,65.36
2023-01-09T15:19:45.907Z,65.46
2023-01-09T15:21:57.964Z,65.69
2023-01-09T15:24:12.953Z,65.42
2023-01-09T15:26:27.140Z,65.89
2023-01-09T15:28:33.035Z,65.51
2023-01-09T15:30:37.113Z,65.05
2023-01-09T15:32:41.269Z,64.90
2023-01-09T15:34:45.369Z,65.00
2023-01-09T15:36:49.332Z,65.17
2023-01-09T15:38:53.502Z,65.82
2023-01-09T15:40:59.116Z,65.62
2023-01-09T15:43:04.254Z,65.97
2023-01-09T15:45:14.063Z,66.06
2023-01-09T15:47:21.077Z,66.27
2023-01-09T15:49:24.109Z,65.87
2023-01-09T15:51:28.195Z,66.39
2023-01-09T15:53:31.429Z,66.70
2023-01-09T15:55:36.106Z,66.81
2023-01-09T15:57:38.949Z,67.00
2023-01-09T15:59:43.131Z,66.71
2023-01-09T16:02:06.110Z,66.47
2023-01-09T16:04:12.403Z,66.71
2023-01-09T16:06:20.835Z,66.94
2023-01-09T16:08:30.357Z,67.69
2023-01-09T16:10:35.915Z,68.00
2023-01-09T16:12:41.412Z,68.02
2023-01-09T16:14:52.532Z,68.30
2023-01-09T16:17:01.275Z,68.18
2023-01-09T16:19:04.573Z,68.47
2023-01-09T16:21:23.709Z,68.63
2023-01-09T16:23:32.962Z,69.09
2023-01-09T16:25:36.927Z,69.10
2023-01-09T16:27:39.718Z,69.02
2023-01-09T16:29:49.700Z,69.72
2023-01-09T16:31:59.862Z,69.38
2023-01-09T16:34:06.817Z,69.78
2023-01-09T16:36:13.319Z,70.00
2023-01-09T16:38:16.198Z,70.21
2023-01-09T16:40:37.049Z,69.96
2023-01-09T16:42:57.516Z,70.08
2023-01-09T16:45:01.669Z,70.26
2023-01-09T16:47:04.947Z,70.82
2023-01-09T16:49:17.780Z,70.86
2023-01-09T16:51:22.298Z,70.88
2023-01-09T16:53:26.987Z,71.01
2023-01-09T16:55:29.867Z,70.69
2023-01-09T16:57:35.071Z,71.08
2023-01-09T16:59:37.913Z,70.82
2023-01-09T17:01:43.465Z,70.85
2023-01-09T17:03:47.783Z,70.81
2023-01-09T17:05:53.067Z,70.43
2023-01-09T17:07:56.586Z,71.03
2023-01-09T17:09:59.395Z,71.18
2023-01-09T17:12:02.265Z,70.95
2023-01-09T17:14:05.319Z,71.43
2023-01-09T17:16:08.938Z,71.64
2023-01-09T17:18:15.822Z,71.78
2023-01-09T17:20:19.643Z,71.78
2023-01-09T17:22:22.444Z,71.86
2023-01-09T17:24:42.772Z,72.42
2023-01-09T17:27:06.906Z,73.50
2023-01-09T17:29:09.732Z,73.20
2023-01-09T17:31:13.242Z,73.24
2023-01-09T17:33:19.668Z,73.75
2023-01-09T17:35:22.464Z,73.05
2023-01-09T17:37:25.303Z,73.66
2023-01-09T17:39:28.074Z,74.01
2023-01-09T17:41:33.439Z,73.64
2023-01-09T17:43:36.246Z,73.50
2023-01-09T17:45:41.031Z,72.70
2023-01-09T17:47:43.808Z,72.00
2023-01-09T17:49:47.945Z,71.02
2023-01-09T17:51:51.036Z,70.62
2023-01-09T17:53:54.005Z,70.45
2023-01-09T17:55:56.799Z,69.24
2023-01-09T17:57:59.601Z,69.08
2023-01-09T18:00:02.538Z,68.97
2023-01-09T18:02:07.445Z,68.19
2023-01-09T18:04:10.725Z,68.67
2023-01-09T18:06:15.671Z,67.80
2023-01-09T18:08:18.290Z,67.74
2023-01-09T18:10:24.159Z,68.25
2023-01-09T18:12:27.039Z,67.95
2023-01-09T18:14:29.842Z,67.78
2023-01-09T18:16:32.707Z,67.72
2023-01-09T18:18:36.602Z,67.96
2023-01-09T18:20:40.354Z,67.84
2023-01-09T18:22:44.480Z,67.31
2023-01-09T18:24:47.415Z,67.71
2023-01-09T18:26:50.496Z,67.51
2023-01-09T18:28:56.274Z,67.41
2023-01-09T18:30:59.076Z,67.46
2023-01-09T18:33:01.887Z,67.06
2023-01-09T18:35:05.100Z,67.63
2023-01-09T18:37:08.031Z,67.25
2023-01-09T18:39:13.154Z,67.42
2023-01-09T18:41:15.930Z,67.75
2023-01-09T18:43:20.312Z,67.28
2023-01-09T18:45:23.151Z,67.65
2023-01-09T18:47:26.056Z,67.48
2023-01-09T18:49:28.926Z,66.94
2023-01-09T18:51:34.096Z,67.10
2023-01-09T18:53:36.977Z,66.91
2023-01-09T18:55:41.110Z,66.71
2023-01-09T18:57:44.192Z,67.00
2023-01-09T18:59:47.090Z,66.90
2023-01-09T19:01:49.877Z,66.80
2023-01-09T19:03:53.113Z,67.11
2023-01-09T19:06:00.187Z,67.13
2023-01-09T19:08:02.983Z,66.67
2023-01-09T19:10:07.137Z,66.75
2023-01-09T19:12:11.670Z,66.66
2023-01-09T19:14:14.546Z,67.26
2023-01-09T19:16:17.995Z,67.18
2023-01-09T19:18:20.842Z,66.85
2023-01-09T19:20:23.722Z,67.13
2023-01-09T19:22:27.620Z,66.87
2023-01-09T19:24:32.746Z,67.13
2023-01-09T19:26:35.674Z,67.05
2023-01-09T19:28:42.091Z,66.99
2023-01-09T19:30:45.203Z,67.51
2023-01-09T19:32:48.140Z,67.59
2023-01-09T19:34:51.542Z,67.72
2023-01-09T19:36:54.460Z,67.48
2023-01-09T19:38:57.812Z,67.19
2023-01-09T19:41:09.110Z,67.17
2023-01-09T19:43:25.492Z,67.34
2023-01-09T19:45:29.775Z,67.12
2023-01-09T19:47:35.485Z,67.54
2023-01-09T19:49:38.641Z,67.27
2023-01-09T19:51:42.339Z,66.97
2023-01-09T19:53:45.873Z,67.33
2023-01-09T19:55:48.715Z,67.11
2023-01-09T19:57:51.475Z,67.25
2023-01-09T19:59:54.270Z,67.38
2023-01-09T20:01:58.471Z,67.13
2023-01-09T20:04:03.280Z,67.29
2023-01-09T20:06:06.624Z,67.39
2023-01-09T20:08:09.446Z,67.86
2023-01-09T20:10:12.380Z,68.08
2023-01-09T20:12:15.247Z,67.69
2023-01-09T20:14:20.764Z,68.32
2023-01-09T20:16:28.120Z,68.33
2023-01-09T20:18:33.758Z,68.31
2023-01-09T20:20:36.558Z,68.23
2023-01-09T20:22:39.516Z,68.44
2023-01-09T20:24:42.469Z,68.42
2023-01-09T20:26:46.831Z,68.08
2023-01-09T20:28:50.470Z,68.64
2023-01-09T20:30:54.025Z,68.33
2023-01-09T20:32:58.162Z,68.09
2023-01-09T20:35:02.973Z,68.04
2023-01-09T20:37:05.823Z,68.22
2023-01-09T20:39:10.573Z,67.91
2023-01-09T20:41:22.444Z,68.17
2023-01-09T20:43:26.599Z,68.07
2023-01-09T20:45:29.734Z,68.17
2023-01-09T20:47:32.563Z,68.04
2023-01-09T20:49:35.310Z,68.10
2023-01-09T20:51:42.706Z,68.46
2023-01-09T20:53:46.558Z,68.55
2023-01-09T20:55:49.338Z,68.85
2023-01-09T20:57:52.121Z,69.00
2023-01-09T20:59:54.921Z,69.20
2023-01-09T21:01:57.669Z,69.10
2023-01-09T21:04:00.868Z,69.21
2023-01-09T21:06:06.034Z,69.32
2023-01-09T21:08:10.247Z,69.61
2023-01-09T21:10:13.008Z,69.47
2023-01-09T21:12:35.535Z,69.80
2023-01-09T21:14:38.815Z,69.90
2023-01-09T21:16:41.698Z,69.89
2023-01-09T21:18:44.948Z,69.62
2023-01-09T21:20:47.833Z,69.75
2023-01-09T21:22:50.815Z,70.12
2023-01-09T21:24:54.967Z,70.00
2023-01-09T21:26:59.088Z,69.80
2023-01-09T21:29:08.142Z,69.75
2023-01-09T21:31:10.966Z,69.93
2023-01-09T21:33:13.784Z,70.00
2023-01-09T21:35:16.845Z,69.64
2023-01-09T21:37:19.597Z,69.53
2023-01-09T21:39:22.476Z,69.48
2023-01-09T21:41:44.523Z,69.28
2023-01-09T21:44:04.907Z,69.34
2023-01-09T21:46:30.783Z,69.98
2023-01-09T21:48:33.378Z,69.67
2023-01-09T21:50:37.163Z,69.67
2023-01-09T21:52:39.984Z,69.59
2023-01-09T21:54:42.986Z,70.00
2023-01-09T21:56:47.235Z,69.90
2023-01-09T21:58:50.194Z,69.94
2023-01-09T22:00:58.091Z,69.07
2023-01-09T22:03:01.153Z,69.68
2023-01-09T22:05:04.119Z,69.42
2023-01-09T22:07:06.986Z,69.18
2023-01-09T22:09:09.967Z,69.35
2023-01-09T22:11:15.406Z,70.04
2023-01-09T22:13:20.450Z,69.35
2023-01-09T22:15:23.321Z,69.52
2023-01-09T22:17:26.194Z,69.34
2023-01-09T22:19:29.039Z,69.33
2023-01-09T22:21:31.946Z,69.74
2023-01-09T22:23:34.763Z,69.60
2023-01-09T22:25:38.366Z,69.30
2023-01-09T22:27:41.162Z,69.30
2023-01-09T22:29:45.359Z,69.78
2023-01-09T22:31:48.350Z,69.71
2023-01-09T22:33:52.014Z,69.83
2023-01-09T22:35:55.006Z,69.42
2023-01-09T22:37:58.186Z,70.09
2023-01-09T22:40:00.932Z,70.22
2023-01-09T22:42:03.789Z,69.70
2023-01-09T22:44:06.664Z,70.50
2023-01-09T22:46:11.790Z,70.09
2023-01-09T22:48:14.773Z,70.62
2023-01-09T22:50:18.039Z,70.61
2023-01-09T22:52:20.993Z,70.76
2023-01-09T22:54:23.782Z,70.88
2023-01-09T22:56:26.600Z,71.37
2023-01-09T22:58:31.193Z,71.23
2023-01-09T23:00:34.000Z,71.83
2023-01-09T23:02:38.329Z,71.86
2023-01-09T23:04:41.140Z,71.94
2023-01-09T23:06:44.252Z,71.90
2023-01-09T23:08:47.970Z,71.58
2023-01-09T23:10:50.812Z,71.92
2023-01-09T23:12:55.986Z,72.32
2023-01-09T23:14:58.782Z,72.05
2023-01-09T23:17:01.568Z,71.67
2023-01-09T23:19:07.398Z,71.52
2023-01-09T23:21:10.556Z,71.34
2023-01-09T23:23:13.338Z,71.39
2023-01-09T23:25:16.354Z,72.04
2023-01-09T23:27:19.158Z,71.78
2023-01-09T23:29:22.058Z,71.47
2023-01-09T23:31:25.853Z,71.08
2023-01-09T23:33:28.788Z,71.62
2023-01-09T23:35:32.863Z,71.80
2023-01-09T23:37:35.690Z,71.31
2023-01-09T23:39:38.555Z,71.34
2023-01-09T23:41:59.695Z,71.21
2023-01-09T23:44:02.526Z,71.56
2023-01-09T23:46:05.661Z,71.33
2023-01-09T23:48:10.437Z,70.81
2023-01-09T23:50:13.267Z,70.32
2023-01-09T23:52:17.422Z,70.29
2023-01-09T23:54:20.296Z,70.16
2023-01-09T23:56:23.135Z,70.21
2023-01-09T23:58:26.400Z,70.42
